createdAt,value
2018-08-30T00:00:54.630Z,4.93
2018-08-30T00:03:22.019Z,5.60
2018-08-30T00:05:49.339Z,6.47
2018-08-30T00:08:16.678Z,4.60
2018-08-30T00:10:44.015Z,6.37
2018-08-30T00:13:11.376Z,4.50
2018-08-30T00:15:38.720Z,4.03
2018-08-30T00:18:06.074Z,5.27
2018-08-30T00:20:33.409Z,4.60
2018-08-30T00:23:00.734Z,4.90
2018-08-30T00:25:29.181Z,4.00
2018-08-30T00:27:57.366Z,5.80
2018-08-30T00:30:24.730Z,3.00
2018-08-30T00:32:52.057Z,3.90
2018-08-30T00:35:19.423Z,5.93
2018-08-30T00:37:46.721Z,6.13
2018-08-30T00:40:14.078Z,5.63
2018-08-30T00:42:41.373Z,4.23
2018-08-30T00:45:08.731Z,5.07
2018-08-30T00:47:36.045Z,3.70
2018-08-30T00:50:03.879Z,5.17
2018-08-30T00:52:31.325Z,4.53
2018-08-30T00:54:59.534Z,5.40
2018-08-30T00:57:27.375Z,5.70
2018-08-30T00:59:54.780Z,6.20
2018-08-30T01:02:22.105Z,10.47
2018-08-30T01:04:49.449Z,3.30
2018-08-30T01:07:16.813Z,3.63
2018-08-30T01:09:44.149Z,4.37
2018-08-30T01:12:11.490Z,4.27
2018-08-30T01:14:38.805Z,5.67
2018-08-30T01:17:06.226Z,7.73
2018-08-30T01:19:33.580Z,5.80
2018-08-30T01:22:01.301Z,5.03
2018-08-30T01:24:29.717Z,5.27
2018-08-30T01:26:57.372Z,4.80
2018-08-30T01:29:24.755Z,4.50
2018-08-30T01:31:52.150Z,5.10
2018-08-30T01:34:19.464Z,3.23
2018-08-30T01:36:46.812Z,4.10
2018-08-30T01:39:14.130Z,3.47
2018-08-30T01:41:42.574Z,6.97
2018-08-30T01:44:10.066Z,4.63
2018-08-30T01:46:37.411Z,3.20
2018-08-30T01:49:04.742Z,3.20
2018-08-30T01:51:32.393Z,3.67
2018-08-30T01:54:00.876Z,4.27
2018-08-30T01:56:28.608Z,4.57
2018-08-30T01:58:56.019Z,3.03
2018-08-30T02:01:23.369Z,4.50
2018-08-30T02:03:50.717Z,3.27
2018-08-30T02:06:18.084Z,5.33
2018-08-30T02:08:45.432Z,8.10
2018-08-30T02:11:12.921Z,3.00
2018-08-30T02:13:40.816Z,3.47
2018-08-30T02:16:09.132Z,2.30
2018-08-30T02:18:36.445Z,4.93
2018-08-30T02:21:03.839Z,3.73
2018-08-30T02:23:31.194Z,3.10
2018-08-30T02:25:58.505Z,4.70
2018-08-30T02:28:25.862Z,2.47
2018-08-30T02:30:53.157Z,2.50
2018-08-30T02:33:20.656Z,2.50
2018-08-30T02:35:48.021Z,2.10
2018-08-30T02:38:15.380Z,2.30
2018-08-30T02:40:42.784Z,2.17
2018-08-30T02:43:11.042Z,2.20
2018-08-30T02:45:39.092Z,3.23
2018-08-30T02:48:07.161Z,3.13
2018-08-30T02:50:34.545Z,3.10
2018-08-30T02:53:01.977Z,2.50
2018-08-30T02:55:29.300Z,3.43
2018-08-30T02:57:56.673Z,2.23
2018-08-30T03:00:24.246Z,2.20
2018-08-30T03:02:51.741Z,3.33
2018-08-30T03:05:19.052Z,3.73
2018-08-30T03:07:46.511Z,2.60
2018-08-30T03:10:13.825Z,2.93
2018-08-30T03:12:41.886Z,2.80
2018-08-30T03:15:11.464Z,7.80
2018-08-30T03:17:39.522Z,3.20
2018-08-30T03:20:09.130Z,2.40
2018-08-30T03:22:37.475Z,4.03
2018-08-30T03:25:04.968Z,2.17
2018-08-30T03:27:32.411Z,3.00
2018-08-30T03:29:59.800Z,3.40
2018-08-30T03:32:27.317Z,2.90
2018-08-30T03:34:54.672Z,4.70
2018-08-30T03:37:22.213Z,4.20
2018-08-30T03:39:49.562Z,3.53
2018-08-30T03:42:16.931Z,3.10
2018-08-30T03:44:44.359Z,5.43
2018-08-30T03:47:12.491Z,9.67
2018-08-30T03:49:41.004Z,7.93
2018-08-30T03:52:08.546Z,4.40
2018-08-30T03:54:36.373Z,4.33
2018-08-30T03:57:03.970Z,3.77
2018-08-30T03:59:31.700Z,3.33
2018-08-30T04:01:59.172Z,3.57
2018-08-30T04:04:26.934Z,5.63
2018-08-30T04:06:54.292Z,3.70
2018-08-30T04:09:21.620Z,4.63
2018-08-30T04:11:48.922Z,6.20
2018-08-30T04:14:16.250Z,8.90
2018-08-30T04:16:43.993Z,5.67
2018-08-30T04:19:12.216Z,4.57
2018-08-30T04:21:39.879Z,4.13
2018-08-30T04:24:08.394Z,4.03
2018-08-30T04:26:35.718Z,7.37
2018-08-30T04:29:03.237Z,3.90
2018-08-30T04:31:30.751Z,4.50
2018-08-30T04:33:58.051Z,4.90
2018-08-30T04:36:25.957Z,4.20
2018-08-30T04:38:53.593Z,5.90
2018-08-30T04:41:20.894Z,6.43
2018-08-30T04:43:48.267Z,4.47
2018-08-30T04:46:15.827Z,4.50
2018-08-30T04:51:18.917Z,4.93
2018-08-30T04:53:46.373Z,8.23
2018-08-30T04:56:14.354Z,5.80
2018-08-30T04:58:42.598Z,4.70
2018-08-30T05:01:10.046Z,5.13
2018-08-30T05:03:37.429Z,5.47
2018-08-30T05:06:04.800Z,5.20
2018-08-30T05:08:32.127Z,5.67
2018-08-30T05:10:59.507Z,6.63
2018-08-30T05:13:26.826Z,8.73
2018-08-30T05:15:54.161Z,6.77
2018-08-30T05:18:21.494Z,6.57
2018-08-30T05:20:48.863Z,5.17
2018-08-30T05:23:16.240Z,6.77
2018-08-30T05:25:44.483Z,5.53
2018-08-30T05:28:12.396Z,6.50
2018-08-30T05:30:39.789Z,9.00
2018-08-30T05:33:07.312Z,12.20
2018-08-30T05:35:34.689Z,8.70
2018-08-30T05:38:02.006Z,5.00
2018-08-30T05:40:29.370Z,9.50
2018-08-30T05:42:56.725Z,6.17
2018-08-30T05:45:24.076Z,6.13
2018-08-30T05:47:51.391Z,8.87
2018-08-30T05:50:18.733Z,7.90
2018-08-30T05:52:46.270Z,8.23
2018-08-30T05:55:14.783Z,7.57
2018-08-30T05:57:42.704Z,8.30
2018-08-30T06:00:10.187Z,9.70
2018-08-30T06:02:37.488Z,9.83
2018-08-30T06:05:05.136Z,15.47
2018-08-30T06:07:32.448Z,7.50
2018-08-30T06:09:59.785Z,11.50
2018-08-30T06:12:27.166Z,7.93
2018-08-30T06:14:54.943Z,20.13
2018-08-30T06:17:22.293Z,13.03
2018-08-30T06:19:49.622Z,10.07
2018-08-30T06:22:17.065Z,7.90
2018-08-30T06:24:45.478Z,9.37
2018-08-30T06:27:13.317Z,10.00
2018-08-30T06:29:40.845Z,11.70
2018-08-30T06:32:08.251Z,10.78
2018-08-30T06:34:35.599Z,14.40
2018-08-30T06:37:02.964Z,8.83
2018-08-30T06:39:30.266Z,9.87
2018-08-30T06:41:57.602Z,8.47
2018-08-30T06:44:24.916Z,13.00
2018-08-30T06:46:52.247Z,8.33
2018-08-30T06:49:19.560Z,9.67
2018-08-30T06:51:47.470Z,10.90
2018-08-30T06:54:15.907Z,9.63
2018-08-30T06:56:43.733Z,7.30
2018-08-30T06:59:11.148Z,9.30
2018-08-30T07:01:38.682Z,7.83
2018-08-30T07:04:06.184Z,5.77
2018-08-30T07:06:33.553Z,9.10
2018-08-30T07:09:00.847Z,9.10
2018-08-30T07:11:28.233Z,11.47
2018-08-30T07:13:55.573Z,6.83
2018-08-30T07:16:22.914Z,8.03
2018-08-30T07:18:50.285Z,10.80
2018-08-30T07:21:18.029Z,8.30
2018-08-30T07:23:46.522Z,10.40
2018-08-30T07:26:14.659Z,5.57
2018-08-30T07:28:42.069Z,6.40
2018-08-30T07:31:09.390Z,10.53
2018-08-30T07:33:36.715Z,7.40
2018-08-30T07:36:04.105Z,6.33
2018-08-30T07:38:31.506Z,9.97
2018-08-30T07:40:58.824Z,10.63
2018-08-30T07:43:26.176Z,11.90
2018-08-30T07:45:53.515Z,7.17
2018-08-30T07:48:20.846Z,13.10
2018-08-30T07:50:48.632Z,7.27
2018-08-30T07:53:17.001Z,9.77
2018-08-30T07:55:44.976Z,6.70
2018-08-30T07:58:12.408Z,11.53
2018-08-30T08:00:39.751Z,9.00
2018-08-30T08:03:07.097Z,7.47
2018-08-30T08:05:34.422Z,8.60
2018-08-30T08:08:01.773Z,13.30
2018-08-30T08:10:29.110Z,13.07
2018-08-30T08:12:56.456Z,15.90
2018-08-30T08:15:23.782Z,10.27
2018-08-30T08:17:51.143Z,11.23
2018-08-30T08:20:18.836Z,10.23
2018-08-30T08:22:47.257Z,9.37
2018-08-30T08:25:15.021Z,11.37
2018-08-30T08:27:42.354Z,9.43
2018-08-30T08:30:09.782Z,12.23
2018-08-30T08:32:37.194Z,8.43
2018-08-30T08:35:04.701Z,9.37
2018-08-30T08:37:32.005Z,12.77
2018-08-30T08:39:59.381Z,12.90
2018-08-30T08:42:26.687Z,10.47
2018-08-30T08:44:54.026Z,13.97
2018-08-30T08:47:21.344Z,11.93
2018-08-30T08:49:49.262Z,10.33
2018-08-30T08:52:17.511Z,11.30
2018-08-30T08:54:44.964Z,13.47
2018-08-30T08:57:12.367Z,12.77
2018-08-30T08:59:39.703Z,11.80
2018-08-30T09:02:07.070Z,15.27
2018-08-30T09:04:34.441Z,12.47
2018-08-30T09:07:01.795Z,13.40
2018-08-30T09:09:29.151Z,12.27
2018-08-30T09:11:56.476Z,12.80
2018-08-30T09:14:23.797Z,16.70
2018-08-30T09:16:51.154Z,13.00
2018-08-30T09:19:18.474Z,12.90
2018-08-30T09:21:45.818Z,11.77
2018-08-30T09:24:13.135Z,11.07
2018-08-30T09:26:41.195Z,15.57
2018-08-30T09:29:09.377Z,11.00
2018-08-30T09:31:36.834Z,9.47
2018-08-30T09:34:04.222Z,11.20
2018-08-30T09:36:31.629Z,7.93
2018-08-30T09:38:58.992Z,10.23
2018-08-30T09:41:26.324Z,9.70
2018-08-30T09:43:53.669Z,8.90
2018-08-30T09:46:21.042Z,11.80
2018-08-30T09:48:48.373Z,12.87
2018-08-30T09:51:15.710Z,9.50
2018-08-30T09:53:43.024Z,12.03
2018-08-30T09:56:11.284Z,14.90
2018-08-30T09:58:39.380Z,12.23
2018-08-30T10:01:12.117Z,12.53
2018-08-30T10:03:40.476Z,14.13
2018-08-30T10:06:08.097Z,20.90
2018-08-30T10:08:35.465Z,12.83
2018-08-30T10:11:02.831Z,14.27
2018-08-30T10:13:30.141Z,13.87
2018-08-30T10:15:57.572Z,12.60
2018-08-30T10:18:24.830Z,15.97
2018-08-30T10:20:52.196Z,15.93
2018-08-30T10:23:19.528Z,14.23
2018-08-30T10:25:46.890Z,12.20
2018-08-30T10:28:14.204Z,13.33
2018-08-30T10:30:42.095Z,15.70
2018-08-30T10:33:10.334Z,9.80
2018-08-30T10:35:37.792Z,15.10
2018-08-30T10:38:05.203Z,15.63
2018-08-30T10:40:32.544Z,15.23
2018-08-30T10:42:59.888Z,16.60
2018-08-30T10:45:27.236Z,17.77
2018-08-30T10:47:54.578Z,13.80
2018-08-30T10:50:22.777Z,13.37
2018-08-30T10:52:50.109Z,14.73
2018-08-30T10:55:17.491Z,16.17
2018-08-30T10:57:44.830Z,15.73
2018-08-30T11:00:12.490Z,15.70
2018-08-30T11:02:40.757Z,13.30
2018-08-30T11:05:08.182Z,14.73
2018-08-30T11:07:35.542Z,19.70
2018-08-30T11:10:02.890Z,15.63
2018-08-30T11:12:30.269Z,17.70
2018-08-30T11:14:57.583Z,13.10
2018-08-30T11:17:25.200Z,13.10
2018-08-30T11:19:52.531Z,15.47
2018-08-30T11:22:19.861Z,15.57
2018-08-30T11:24:47.172Z,13.00
2018-08-30T11:27:14.533Z,12.33
2018-08-30T11:29:42.765Z,18.90
2018-08-30T11:32:10.759Z,15.63
2018-08-30T11:34:38.136Z,12.37
2018-08-30T11:37:05.498Z,17.00
2018-08-30T11:39:32.800Z,17.10
2018-08-30T11:42:00.143Z,14.77
2018-08-30T11:44:27.459Z,16.90
2018-08-30T11:46:54.842Z,18.10
2018-08-30T11:49:22.171Z,14.53
2018-08-30T11:51:49.543Z,14.40
2018-08-30T11:54:17.011Z,14.60
2018-08-30T11:56:44.542Z,14.17
2018-08-30T11:59:12.830Z,15.53
2018-08-30T12:01:42.031Z,17.30
2018-08-30T12:04:09.456Z,19.23
2018-08-30T12:06:36.817Z,16.43
2018-08-30T12:09:05.091Z,21.30
2018-08-30T12:11:32.491Z,15.67
2018-08-30T12:13:59.870Z,17.20
2018-08-30T12:16:27.197Z,19.97
2018-08-30T12:18:54.602Z,19.20
2018-08-30T12:21:21.919Z,15.67
2018-08-30T12:23:49.283Z,21.57
2018-08-30T12:26:16.655Z,19.10
2018-08-30T12:28:44.559Z,19.63
2018-08-30T12:31:12.985Z,17.33
2018-08-30T12:33:41.021Z,18.50
2018-08-30T12:36:08.441Z,15.13
2018-08-30T12:38:35.827Z,18.97
2018-08-30T12:41:03.239Z,13.53
2018-08-30T12:43:30.658Z,14.10
2018-08-30T12:45:57.987Z,14.23
2018-08-30T12:48:25.275Z,19.33
2018-08-30T12:50:52.613Z,15.30
2018-08-30T12:53:20.031Z,15.37
2018-08-30T12:55:47.389Z,16.53
2018-08-30T12:58:15.249Z,15.33
2018-08-30T13:00:43.495Z,16.70
2018-08-30T13:03:11.044Z,18.93
2018-08-30T13:05:38.703Z,16.30
2018-08-30T13:08:06.053Z,20.47
2018-08-30T13:10:33.491Z,16.23
2018-08-30T13:13:00.980Z,14.10
2018-08-30T13:15:28.284Z,16.87
2018-08-30T13:17:55.535Z,17.20
2018-08-30T13:20:23.030Z,19.47
2018-08-30T13:22:50.351Z,15.70
2018-08-30T13:25:17.859Z,17.03
2018-08-30T13:27:45.541Z,16.43
2018-08-30T13:30:13.959Z,12.77
2018-08-30T13:32:41.456Z,21.73
2018-08-30T13:35:08.911Z,17.13
2018-08-30T13:37:36.188Z,17.37
2018-08-30T13:40:04.260Z,20.88
2018-08-30T13:42:31.663Z,19.50
2018-08-30T13:44:58.933Z,17.83
2018-08-30T13:47:26.002Z,16.63
2018-08-30T13:49:53.357Z,20.10
2018-08-30T13:52:21.332Z,13.87
2018-08-30T13:54:48.525Z,23.23
2018-08-30T13:57:16.376Z,21.93
2018-08-30T13:59:44.714Z,17.43
2018-08-30T14:02:11.913Z,18.70
2018-08-30T14:04:39.349Z,14.97
2018-08-30T14:07:06.765Z,14.00
2018-08-30T14:09:34.389Z,15.63
2018-08-30T14:12:01.622Z,19.20
2018-08-30T14:14:29.159Z,14.40
2018-08-30T14:16:56.147Z,14.30
2018-08-30T14:19:23.374Z,15.20
2018-08-30T14:21:50.727Z,14.30
2018-08-30T14:24:18.216Z,20.73
2018-08-30T14:26:46.323Z,15.67
2018-08-30T14:29:14.330Z,15.13
2018-08-30T14:31:41.644Z,19.53
2018-08-30T14:34:08.991Z,17.13
2018-08-30T14:36:36.348Z,19.43
2018-08-30T14:39:03.985Z,15.30
2018-08-30T14:41:31.555Z,14.63
2018-08-30T14:43:58.671Z,16.60
2018-08-30T14:46:26.016Z,17.27
2018-08-30T14:48:53.339Z,14.03
2018-08-30T14:51:21.277Z,14.20
2018-08-30T14:53:52.179Z,19.13
2018-08-30T14:56:16.845Z,17.63
2018-08-30T14:58:45.081Z,18.80
2018-08-30T15:01:12.469Z,16.87
2018-08-30T15:03:39.804Z,16.97
2018-08-30T15:06:07.155Z,18.87
2018-08-30T15:08:34.475Z,24.70
2018-08-30T15:11:01.884Z,19.60
2018-08-30T15:13:29.153Z,18.30
2018-08-30T15:15:56.552Z,20.13
2018-08-30T15:18:23.868Z,17.30
2018-08-30T15:20:51.382Z,17.43
2018-08-30T15:23:18.749Z,18.13
2018-08-30T15:25:46.960Z,18.10
2018-08-30T15:28:14.886Z,16.97
2018-08-30T15:30:42.391Z,17.63
2018-08-30T15:33:09.666Z,18.10
2018-08-30T15:35:37.380Z,17.85
2018-08-30T15:38:04.793Z,17.20
2018-08-30T15:40:32.145Z,16.80
2018-08-30T15:42:59.454Z,14.57
2018-08-30T15:45:26.805Z,16.70
2018-08-30T15:47:54.229Z,17.90
2018-08-30T15:50:21.561Z,20.63
2018-08-30T15:52:49.055Z,20.80
2018-08-30T15:55:17.359Z,21.43
2018-08-30T15:57:45.298Z,15.00
2018-08-30T16:00:15.930Z,18.57
2018-08-30T16:02:43.378Z,17.53
2018-08-30T16:05:10.766Z,15.93
2018-08-30T16:07:38.149Z,16.80
2018-08-30T16:10:06.046Z,21.20
2018-08-30T16:12:33.401Z,16.90
2018-08-30T16:15:00.915Z,22.97
2018-08-30T16:17:28.104Z,18.30
2018-08-30T16:19:55.470Z,21.50
2018-08-30T16:22:27.274Z,18.93
2018-08-30T16:24:54.640Z,23.07
2018-08-30T16:27:22.023Z,20.47
2018-08-30T16:29:49.755Z,18.33
2018-08-30T16:32:18.251Z,20.53
2018-08-30T16:34:46.068Z,19.60
2018-08-30T16:37:13.484Z,17.47
2018-08-30T16:39:40.810Z,17.43
2018-08-30T16:42:08.154Z,19.47
2018-08-30T16:44:35.461Z,12.27
2018-08-30T16:47:02.880Z,15.77
2018-08-30T16:49:30.197Z,11.73
2018-08-30T16:51:57.549Z,18.43
2018-08-30T16:54:24.874Z,14.50
2018-08-30T16:56:52.217Z,19.57
2018-08-30T16:59:19.965Z,14.03
2018-08-30T17:01:48.403Z,12.83
2018-08-30T17:04:16.174Z,13.90
2018-08-30T17:06:43.601Z,17.67
2018-08-30T17:09:10.959Z,14.27
2018-08-30T17:11:38.277Z,11.43
2018-08-30T17:14:05.651Z,18.57
2018-08-30T17:16:33.154Z,14.77
2018-08-30T17:19:10.147Z,16.67
2018-08-30T17:21:37.480Z,14.47
2018-08-30T17:24:04.841Z,14.13
2018-08-30T17:26:32.180Z,15.53
2018-08-30T17:28:59.524Z,19.00
2018-08-30T17:31:26.953Z,10.97
2018-08-30T17:33:54.238Z,14.70
2018-08-30T17:36:21.712Z,15.87
2018-08-30T17:38:49.936Z,16.07
2018-08-30T17:41:17.776Z,18.80
2018-08-30T17:43:45.288Z,17.60
2018-08-30T17:46:12.613Z,18.40
2018-08-30T17:48:39.980Z,17.13
2018-08-30T17:51:08.147Z,13.60
2018-08-30T17:53:35.499Z,16.73
2018-08-30T17:56:02.876Z,15.47
2018-08-30T17:58:30.381Z,18.97
2018-08-30T18:00:57.841Z,16.23
2018-08-30T18:03:25.051Z,14.57
2018-08-30T18:05:52.447Z,14.70
2018-08-30T18:08:20.698Z,19.27
2018-08-30T18:10:48.699Z,16.70
2018-08-30T18:13:16.072Z,17.07
2018-08-30T18:15:43.441Z,17.80
2018-08-30T18:18:10.777Z,20.90
2018-08-30T18:20:38.093Z,15.90
2018-08-30T18:23:05.442Z,16.07
2018-08-30T18:25:32.818Z,15.60
2018-08-30T18:28:00.147Z,16.60
2018-08-30T18:30:27.477Z,20.03
2018-08-30T18:32:54.818Z,17.43
2018-08-30T18:35:22.444Z,16.57
2018-08-30T18:37:50.880Z,17.20
2018-08-30T18:40:18.701Z,15.43
2018-08-30T18:42:46.066Z,19.40
2018-08-30T18:45:13.411Z,14.40
2018-08-30T18:47:40.728Z,17.80
2018-08-30T18:50:08.085Z,17.10
2018-08-30T18:52:35.441Z,18.03
2018-08-30T18:55:02.778Z,17.20
2018-08-30T18:57:30.127Z,19.90
2018-08-30T18:59:57.469Z,16.20
2018-08-30T19:02:24.797Z,18.57
2018-08-30T19:04:52.525Z,13.90
2018-08-30T19:07:20.987Z,14.23
2018-08-30T19:09:48.497Z,15.50
2018-08-30T19:12:15.943Z,13.03
2018-08-30T19:14:43.248Z,15.17
2018-08-30T19:17:15.866Z,20.33
2018-08-30T19:19:43.195Z,15.13
2018-08-30T19:22:10.532Z,14.03
2018-08-30T19:24:43.147Z,13.57
2018-08-30T19:27:10.506Z,20.30
2018-08-30T19:29:43.247Z,17.90
2018-08-30T19:32:10.582Z,15.07
2018-08-30T19:34:37.882Z,15.67
2018-08-30T19:37:05.249Z,18.50
2018-08-30T19:39:32.559Z,17.10
2018-08-30T19:41:59.908Z,15.33
2018-08-30T19:44:27.217Z,17.97
2018-08-30T19:46:54.560Z,16.47
2018-08-30T19:49:22.952Z,28.27
2018-08-30T19:51:54.184Z,17.93
2018-08-30T19:54:24.784Z,14.33
2018-08-30T19:56:54.963Z,17.60
2018-08-30T19:59:24.091Z,18.00
2018-08-30T20:01:52.368Z,14.87
2018-08-30T20:04:24.551Z,18.50
2018-08-30T20:06:55.422Z,15.20
2018-08-30T20:09:26.299Z,15.10
2018-08-30T20:11:53.922Z,19.70
2018-08-30T20:14:23.235Z,18.83
2018-08-30T20:16:51.267Z,15.40
2018-08-30T20:19:18.701Z,15.73
2018-08-30T20:21:46.026Z,16.60
2018-08-30T20:24:13.368Z,16.30
2018-08-30T20:26:40.695Z,19.23
2018-08-30T20:29:08.084Z,16.93
2018-08-30T20:31:35.546Z,25.03
2018-08-30T20:34:03.025Z,17.93
2018-08-30T20:36:30.529Z,22.03
2018-08-30T20:38:57.944Z,16.53
2018-08-30T20:41:25.471Z,23.80
2018-08-30T20:43:53.685Z,17.73
2018-08-30T20:46:21.524Z,22.33
2018-08-30T20:48:49.093Z,14.77
2018-08-30T20:51:16.440Z,24.50
2018-08-30T20:53:43.793Z,15.40
2018-08-30T20:56:11.132Z,18.47
2018-08-30T20:58:38.545Z,19.20
2018-08-30T21:01:05.861Z,20.57
2018-08-30T21:03:34.256Z,20.70
2018-08-30T21:06:01.596Z,18.73
2018-08-30T21:08:30.180Z,18.50
2018-08-30T21:10:57.507Z,19.23
2018-08-30T21:13:25.233Z,19.10
2018-08-30T21:15:53.796Z,20.33
2018-08-30T21:18:21.559Z,19.07
2018-08-30T21:20:48.988Z,17.20
2018-08-30T21:23:16.311Z,16.77
2018-08-30T21:25:43.680Z,21.00
2018-08-30T21:28:10.990Z,18.90
2018-08-30T21:30:38.331Z,16.73
2018-08-30T21:33:05.660Z,20.10
2018-08-30T21:35:33.068Z,23.33
2018-08-30T21:38:00.435Z,21.77
2018-08-30T21:40:27.792Z,15.90
2018-08-30T21:42:55.983Z,15.70
2018-08-30T21:45:24.258Z,21.80
2018-08-30T21:47:51.579Z,18.73
2018-08-30T21:50:18.969Z,18.10
2018-08-30T21:52:46.301Z,22.13
2018-08-30T21:55:13.711Z,14.80
2018-08-30T21:57:41.062Z,16.97
2018-08-30T22:00:08.430Z,18.13
2018-08-30T22:02:35.787Z,18.60
2018-08-30T22:05:03.821Z,17.37
2018-08-30T22:07:31.709Z,22.00
2018-08-30T22:09:59.051Z,18.37
2018-08-30T22:12:26.865Z,18.93
2018-08-30T22:14:55.158Z,19.43
2018-08-30T22:17:22.493Z,19.93
2018-08-30T22:19:49.891Z,23.40
2018-08-30T22:22:17.219Z,19.63
2018-08-30T22:24:44.576Z,16.90
2018-08-30T22:27:11.965Z,18.67
2018-08-30T22:29:39.351Z,21.60
2018-08-30T22:32:06.686Z,18.00
2018-08-30T22:34:34.014Z,24.27
2018-08-30T22:37:01.357Z,19.23
2018-08-30T22:39:28.773Z,16.60
2018-08-30T22:41:57.149Z,17.07
2018-08-30T22:44:25.350Z,18.67
2018-08-30T22:46:52.733Z,18.90
2018-08-30T22:49:20.059Z,15.80
2018-08-30T22:51:47.421Z,19.30
2018-08-30T22:54:14.736Z,16.77
2018-08-30T22:56:42.095Z,16.97
2018-08-30T22:59:09.438Z,18.23
2018-08-30T23:01:36.788Z,19.70
2018-08-30T23:04:04.102Z,20.20
2018-08-30T23:06:31.495Z,19.77
2018-08-30T23:08:59.107Z,18.47
2018-08-30T23:11:27.812Z,15.53
2018-08-30T23:13:55.644Z,19.40
2018-08-30T23:16:23.051Z,18.93
2018-08-30T23:18:50.413Z,18.20
2018-08-30T23:21:17.764Z,15.90
2018-08-30T23:23:45.127Z,17.47
2018-08-30T23:26:12.483Z,18.37
2018-08-30T23:28:39.803Z,21.47
2018-08-30T23:31:07.227Z,15.20
2018-08-30T23:33:34.549Z,21.17
2018-08-30T23:36:01.894Z,19.67
2018-08-30T23:38:29.458Z,18.70
2018-08-30T23:40:57.990Z,20.60
2018-08-30T23:43:25.662Z,19.53
2018-08-30T23:45:53.057Z,18.03
2018-08-30T23:48:20.355Z,18.23
2018-08-30T23:50:47.723Z,16.47
2018-08-30T23:53:15.042Z,19.73
2018-08-30T23:55:42.352Z,15.97
